sensor_id;sensor_type;location;lat;lon;timestamp;temperature;humidity
68691;DHT22;55675;49.588;8.640;2023-04-08T00:00:43;11.60;91.20
68691;DHT22;55675;49.588;8.640;2023-04-08T00:03:08;11.50;91.30
68691;DHT22;55675;49.588;8.640;2023-04-08T00:05:33;11.50;91.30
68691;DHT22;55675;49.588;8.640;2023-04-08T00:07:59;11.50;91.30
68691;DHT22;55675;49.588;8.640;2023-04-08T00:10:24;11.50;91.30
68691;DHT22;55675;49.588;8.640;2023-04-08T00:12:50;11.50;91.40
68691;DHT22;55675;49.588;8.640;2023-04-08T00:15:16;11.50;91.30
68691;DHT22;55675;49.588;8.640;2023-04-08T00:17:41;11.50;91.30
68691;DHT22;55675;49.588;8.640;2023-04-08T00:20:07;11.50;91.30
68691;DHT22;55675;49.588;8.640;2023-04-08T00:22:32;11.60;91.20
68691;DHT22;55675;49.588;8.640;2023-04-08T00:24:58;11.60;91.20
68691;DHT22;55675;49.588;8.640;2023-04-08T00:27:23;11.60;91.20
68691;DHT22;55675;49.588;8.640;2023-04-08T00:29:52;11.60;91.10
68691;DHT22;55675;49.588;8.640;2023-04-08T00:32:17;11.60;91.10
68691;DHT22;55675;49.588;8.640;2023-04-08T00:34:42;11.60;91.10
68691;DHT22;55675;49.588;8.640;2023-04-08T00:37:08;11.60;91.00
68691;DHT22;55675;49.588;8.640;2023-04-08T00:39:33;11.50;91.00
68691;DHT22;55675;49.588;8.640;2023-04-08T00:41:59;11.50;91.10
68691;DHT22;55675;49.588;8.640;2023-04-08T00:44:26;11.50;91.10
68691;DHT22;55675;49.588;8.640;2023-04-08T00:46:51;11.50;91.10
68691;DHT22;55675;49.588;8.640;2023-04-08T00:49:17;11.40;91.10
68691;DHT22;55675;49.588;8.640;2023-04-08T00:51:42;11.40;91.10
68691;DHT22;55675;49.588;8.640;2023-04-08T00:54:08;11.40;91.10
68691;DHT22;55675;49.588;8.640;2023-04-08T00:56:33;11.40;91.10
68691;DHT22;55675;49.588;8.640;2023-04-08T00:59:00;11.40;91.10
68691;DHT22;55675;49.588;8.640;2023-04-08T01:01:32;11.40;91.10
68691;DHT22;55675;49.588;8.640;2023-04-08T01:09:01;11.40;91.00
68691;DHT22;55675;49.588;8.640;2023-04-08T01:11:29;11.40;91.00
68691;DHT22;55675;49.588;8.640;2023-04-08T01:13:56;11.50;91.10
68691;DHT22;55675;49.588;8.640;2023-04-08T01:16:22;11.50;91.10
68691;DHT22;55675;49.588;8.640;2023-04-08T01:18:48;11.50;91.10
68691;DHT22;55675;49.588;8.640;2023-04-08T01:21:14;11.50;91.10
68691;DHT22;55675;49.588;8.640;2023-04-08T01:23:58;11.50;91.00
68691;DHT22;55675;49.588;8.640;2023-04-08T01:26:26;11.50;91.10
68691;DHT22;55675;49.588;8.640;2023-04-08T01:28:56;11.50;91.10
68691;DHT22;55675;49.588;8.640;2023-04-08T01:31:22;11.50;91.40
68691;DHT22;55675;49.588;8.640;2023-04-08T01:33:48;11.50;91.10
68691;DHT22;55675;49.588;8.640;2023-04-08T01:36:15;11.50;91.10
68691;DHT22;55675;49.588;8.640;2023-04-08T01:38:41;11.50;91.10
68691;DHT22;55675;49.588;8.640;2023-04-08T01:41:10;11.50;91.00
68691;DHT22;55675;49.588;8.640;2023-04-08T01:43:38;11.50;91.00
68691;DHT22;55675;49.588;8.640;2023-04-08T01:46:04;11.50;91.00
68691;DHT22;55675;49.588;8.640;2023-04-08T01:48:30;11.50;91.00
68691;DHT22;55675;49.588;8.640;2023-04-08T01:50:56;11.50;91.00
68691;DHT22;55675;49.588;8.640;2023-04-08T01:53:22;11.50;91.10
68691;DHT22;55675;49.588;8.640;2023-04-08T01:55:49;11.40;91.10
68691;DHT22;55675;49.588;8.640;2023-04-08T01:58:17;11.40;91.20
68691;DHT22;55675;49.588;8.640;2023-04-08T02:00:44;11.30;91.20
68691;DHT22;55675;49.588;8.640;2023-04-08T02:03:11;11.30;91.30
68691;DHT22;55675;49.588;8.640;2023-04-08T02:05:36;11.30;91.30
68691;DHT22;55675;49.588;8.640;2023-04-08T02:08:02;11.30;91.40
68691;DHT22;55675;49.588;8.640;2023-04-08T02:10:27;11.30;91.40
68691;DHT22;55675;49.588;8.640;2023-04-08T02:12:53;11.30;91.60
68691;DHT22;55675;49.588;8.640;2023-04-08T02:15:18;11.30;91.50
68691;DHT22;55675;49.588;8.640;2023-04-08T02:17:45;11.30;91.50
68691;DHT22;55675;49.588;8.640;2023-04-08T02:22:46;11.20;91.50
68691;DHT22;55675;49.588;8.640;2023-04-08T02:25:12;11.20;91.60
68691;DHT22;55675;49.588;8.640;2023-04-08T02:27:38;11.20;91.60
68691;DHT22;55675;49.588;8.640;2023-04-08T02:30:04;11.20;91.70
68691;DHT22;55675;49.588;8.640;2023-04-08T02:32:34;11.20;91.70
68691;DHT22;55675;49.588;8.640;2023-04-08T02:35:00;11.20;91.70
68691;DHT22;55675;49.588;8.640;2023-04-08T02:37:27;11.20;91.70
68691;DHT22;55675;49.588;8.640;2023-04-08T02:39:53;11.10;91.70
68691;DHT22;55675;49.588;8.640;2023-04-08T02:42:18;11.10;91.90
68691;DHT22;55675;49.588;8.640;2023-04-08T02:44:44;11.10;91.90
68691;DHT22;55675;49.588;8.640;2023-04-08T02:47:10;11.10;91.90
68691;DHT22;55675;49.588;8.640;2023-04-08T02:49:35;11.10;92.00
68691;DHT22;55675;49.588;8.640;2023-04-08T02:52:01;11.10;92.00
68691;DHT22;55675;49.588;8.640;2023-04-08T02:54:26;11.10;92.00
68691;DHT22;55675;49.588;8.640;2023-04-08T02:56:51;11.10;92.00
68691;DHT22;55675;49.588;8.640;2023-04-08T02:59:17;11.10;92.00
68691;DHT22;55675;49.588;8.640;2023-04-08T03:01:42;11.10;92.00
68691;DHT22;55675;49.588;8.640;2023-04-08T03:04:08;11.10;92.00
68691;DHT22;55675;49.588;8.640;2023-04-08T03:06:33;11.10;92.00
68691;DHT22;55675;49.588;8.640;2023-04-08T03:08:59;11.10;92.00
68691;DHT22;55675;49.588;8.640;2023-04-08T03:11:24;11.10;92.00
68691;DHT22;55675;49.588;8.640;2023-04-08T03:13:50;11.10;92.10
68691;DHT22;55675;49.588;8.640;2023-04-08T03:16:15;11.10;92.10
68691;DHT22;55675;49.588;8.640;2023-04-08T03:18:41;11.00;92.10
68691;DHT22;55675;49.588;8.640;2023-04-08T03:21:06;11.10;92.10
68691;DHT22;55675;49.588;8.640;2023-04-08T03:23:32;11.00;92.10
68691;DHT22;55675;49.588;8.640;2023-04-08T03:25:57;11.00;92.10
68691;DHT22;55675;49.588;8.640;2023-04-08T03:28:23;11.00;92.20
68691;DHT22;55675;49.588;8.640;2023-04-08T03:30:48;11.00;92.20
68691;DHT22;55675;49.588;8.640;2023-04-08T03:33:13;11.00;92.20
68691;DHT22;55675;49.588;8.640;2023-04-08T03:35:39;11.10;92.20
68691;DHT22;55675;49.588;8.640;2023-04-08T03:38:05;11.00;92.20
68691;DHT22;55675;49.588;8.640;2023-04-08T03:40:30;11.00;92.20
68691;DHT22;55675;49.588;8.640;2023-04-08T03:42:55;11.00;92.20
68691;DHT22;55675;49.588;8.640;2023-04-08T03:45:21;11.00;92.20
68691;DHT22;55675;49.588;8.640;2023-04-08T03:47:46;11.00;92.30
68691;DHT22;55675;49.588;8.640;2023-04-08T03:50:12;11.00;92.30
68691;DHT22;55675;49.588;8.640;2023-04-08T03:52:37;11.00;92.30
68691;DHT22;55675;49.588;8.640;2023-04-08T03:55:03;11.00;92.30
68691;DHT22;55675;49.588;8.640;2023-04-08T03:57:28;11.00;92.30
68691;DHT22;55675;49.588;8.640;2023-04-08T03:59:54;11.00;92.30
68691;DHT22;55675;49.588;8.640;2023-04-08T04:02:19;11.00;92.30
68691;DHT22;55675;49.588;8.640;2023-04-08T04:04:45;11.00;92.40
68691;DHT22;55675;49.588;8.640;2023-04-08T04:07:10;11.00;92.30
68691;DHT22;55675;49.588;8.640;2023-04-08T04:09:35;11.00;92.40
68691;DHT22;55675;49.588;8.640;2023-04-08T04:12:01;11.00;92.40
68691;DHT22;55675;49.588;8.640;2023-04-08T04:14:26;10.90;92.40
68691;DHT22;55675;49.588;8.640;2023-04-08T04:16:52;10.90;92.50
68691;DHT22;55675;49.588;8.640;2023-04-08T04:19:17;10.90;92.50
68691;DHT22;55675;49.588;8.640;2023-04-08T04:21:43;10.90;92.50
68691;DHT22;55675;49.588;8.640;2023-04-08T04:24:08;10.90;92.50
68691;DHT22;55675;49.588;8.640;2023-04-08T04:26:34;10.90;92.50
68691;DHT22;55675;49.588;8.640;2023-04-08T04:28:59;10.90;92.50
68691;DHT22;55675;49.588;8.640;2023-04-08T04:31:25;10.90;92.50
68691;DHT22;55675;49.588;8.640;2023-04-08T04:33:50;10.90;92.40
68691;DHT22;55675;49.588;8.640;2023-04-08T04:36:16;10.90;92.50
68691;DHT22;55675;49.588;8.640;2023-04-08T04:38:41;10.90;92.50
68691;DHT22;55675;49.588;8.640;2023-04-08T04:41:07;11.00;92.40
68691;DHT22;55675;49.588;8.640;2023-04-08T04:43:33;11.00;92.40
68691;DHT22;55675;49.588;8.640;2023-04-08T04:45:58;11.00;92.40
68691;DHT22;55675;49.588;8.640;2023-04-08T04:48:24;10.90;92.40
68691;DHT22;55675;49.588;8.640;2023-04-08T04:50:53;11.00;92.40
68691;DHT22;55675;49.588;8.640;2023-04-08T04:53:19;10.90;92.40
68691;DHT22;55675;49.588;8.640;2023-04-08T04:55:45;10.90;92.30
68691;DHT22;55675;49.588;8.640;2023-04-08T04:58:10;10.90;92.40
68691;DHT22;55675;49.588;8.640;2023-04-08T05:00:36;10.90;92.40
68691;DHT22;55675;49.588;8.640;2023-04-08T05:03:01;10.90;92.40
68691;DHT22;55675;49.588;8.640;2023-04-08T05:05:27;10.90;92.50
68691;DHT22;55675;49.588;8.640;2023-04-08T05:07:52;10.80;92.40
68691;DHT22;55675;49.588;8.640;2023-04-08T05:10:18;10.80;92.40
68691;DHT22;55675;49.588;8.640;2023-04-08T05:12:43;10.80;92.40
68691;DHT22;55675;49.588;8.640;2023-04-08T05:15:09;10.80;92.40
68691;DHT22;55675;49.588;8.640;2023-04-08T05:17:34;10.80;92.50
68691;DHT22;55675;49.588;8.640;2023-04-08T05:20:00;10.80;92.40
68691;DHT22;55675;49.588;8.640;2023-04-08T05:22:25;10.80;92.40
68691;DHT22;55675;49.588;8.640;2023-04-08T05:24:51;10.90;92.40
68691;DHT22;55675;49.588;8.640;2023-04-08T05:27:16;10.90;92.40
68691;DHT22;55675;49.588;8.640;2023-04-08T05:29:41;10.90;92.30
68691;DHT22;55675;49.588;8.640;2023-04-08T05:32:07;10.90;92.20
68691;DHT22;55675;49.588;8.640;2023-04-08T05:34:32;10.90;92.10
68691;DHT22;55675;49.588;8.640;2023-04-08T05:36:58;10.80;92.00
68691;DHT22;55675;49.588;8.640;2023-04-08T05:39:23;10.70;92.00
68691;DHT22;55675;49.588;8.640;2023-04-08T05:41:49;10.60;91.90
68691;DHT22;55675;49.588;8.640;2023-04-08T05:44:14;10.50;92.00
68691;DHT22;55675;49.588;8.640;2023-04-08T05:46:40;10.40;92.00
68691;DHT22;55675;49.588;8.640;2023-04-08T05:49:05;10.40;92.10
68691;DHT22;55675;49.588;8.640;2023-04-08T05:51:30;10.30;92.10
68691;DHT22;55675;49.588;8.640;2023-04-08T05:53:56;10.30;92.10
68691;DHT22;55675;49.588;8.640;2023-04-08T05:56:21;10.20;92.40
68691;DHT22;55675;49.588;8.640;2023-04-08T05:58:47;10.20;92.20
68691;DHT22;55675;49.588;8.640;2023-04-08T06:01:12;10.10;92.20
68691;DHT22;55675;49.588;8.640;2023-04-08T06:03:38;10.10;92.20
68691;DHT22;55675;49.588;8.640;2023-04-08T06:06:04;10.10;92.30
68691;DHT22;55675;49.588;8.640;2023-04-08T06:08:33;10.10;92.30
68691;DHT22;55675;49.588;8.640;2023-04-08T06:10:58;10.20;92.50
68691;DHT22;55675;49.588;8.640;2023-04-08T06:13:24;10.20;92.40
68691;DHT22;55675;49.588;8.640;2023-04-08T06:15:50;10.20;92.40
68691;DHT22;55675;49.588;8.640;2023-04-08T06:18:16;10.30;92.50
68691;DHT22;55675;49.588;8.640;2023-04-08T06:20:41;10.40;92.40
68691;DHT22;55675;49.588;8.640;2023-04-08T06:23:07;10.40;92.40
68691;DHT22;55675;49.588;8.640;2023-04-08T06:25:32;10.50;92.30
68691;DHT22;55675;49.588;8.640;2023-04-08T06:27:58;10.60;92.30
68691;DHT22;55675;49.588;8.640;2023-04-08T06:30:23;10.60;92.10
68691;DHT22;55675;49.588;8.640;2023-04-08T06:32:49;10.60;92.00
68691;DHT22;55675;49.588;8.640;2023-04-08T06:35:14;10.70;91.90
68691;DHT22;55675;49.588;8.640;2023-04-08T06:37:40;10.60;91.60
68691;DHT22;55675;49.588;8.640;2023-04-08T06:40:05;10.60;91.50
68691;DHT22;55675;49.588;8.640;2023-04-08T06:42:31;10.60;91.50
68691;DHT22;55675;49.588;8.640;2023-04-08T06:44:56;10.50;91.40
68691;DHT22;55675;49.588;8.640;2023-04-08T06:47:22;10.50;91.40
68691;DHT22;55675;49.588;8.640;2023-04-08T06:49:48;10.60;91.40
68691;DHT22;55675;49.588;8.640;2023-04-08T06:52:13;10.50;91.30
68691;DHT22;55675;49.588;8.640;2023-04-08T06:54:38;10.50;91.20
68691;DHT22;55675;49.588;8.640;2023-04-08T06:57:04;10.60;91.20
68691;DHT22;55675;49.588;8.640;2023-04-08T06:59:29;10.70;91.10
68691;DHT22;55675;49.588;8.640;2023-04-08T07:01:55;10.70;91.00
68691;DHT22;55675;49.588;8.640;2023-04-08T07:04:20;10.80;91.00
68691;DHT22;55675;49.588;8.640;2023-04-08T07:06:46;10.90;90.80
68691;DHT22;55675;49.588;8.640;2023-04-08T07:09:11;11.00;90.30
68691;DHT22;55675;49.588;8.640;2023-04-08T07:11:36;11.00;90.20
68691;DHT22;55675;49.588;8.640;2023-04-08T07:14:02;11.10;90.10
68691;DHT22;55675;49.588;8.640;2023-04-08T07:16:27;11.00;90.00
68691;DHT22;55675;49.588;8.640;2023-04-08T07:21:56;11.10;90.00
68691;DHT22;55675;49.588;8.640;2023-04-08T07:24:22;11.20;89.50
68691;DHT22;55675;49.588;8.640;2023-04-08T07:26:47;11.30;89.50
68691;DHT22;55675;49.588;8.640;2023-04-08T07:29:13;11.50;88.70
68691;DHT22;55675;49.588;8.640;2023-04-08T07:31:41;11.60;88.30
68691;DHT22;55675;49.588;8.640;2023-04-08T07:34:07;11.80;87.90
68691;DHT22;55675;49.588;8.640;2023-04-08T07:36:32;12.00;87.60
68691;DHT22;55675;49.588;8.640;2023-04-08T07:38:58;12.30;86.40
68691;DHT22;55675;49.588;8.640;2023-04-08T07:41:23;12.40;85.00
68691;DHT22;55675;49.588;8.640;2023-04-08T07:43:48;12.60;82.80
68691;DHT22;55675;49.588;8.640;2023-04-08T07:46:14;12.70;80.70
68691;DHT22;55675;49.588;8.640;2023-04-08T07:48:40;13.00;80.20
68691;DHT22;55675;49.588;8.640;2023-04-08T07:51:06;13.20;78.60
68691;DHT22;55675;49.588;8.640;2023-04-08T07:53:31;13.50;78.00
68691;DHT22;55675;49.588;8.640;2023-04-08T07:55:57;13.70;76.00
68691;DHT22;55675;49.588;8.640;2023-04-08T07:58:23;13.80;76.20
68691;DHT22;55675;49.588;8.640;2023-04-08T08:00:49;14.00;77.10
68691;DHT22;55675;49.588;8.640;2023-04-08T08:03:15;14.10;68.50
68691;DHT22;55675;49.588;8.640;2023-04-08T08:05:40;14.10;67.80
68691;DHT22;55675;49.588;8.640;2023-04-08T08:08:06;14.10;65.00
68691;DHT22;55675;49.588;8.640;2023-04-08T08:10:32;14.00;62.40
68691;DHT22;55675;49.588;8.640;2023-04-08T08:12:58;13.80;60.90
68691;DHT22;55675;49.588;8.640;2023-04-08T08:15:23;13.80;63.50
68691;DHT22;55675;49.588;8.640;2023-04-08T08:17:48;13.90;62.10
68691;DHT22;55675;49.588;8.640;2023-04-08T08:20:14;13.80;62.50
68691;DHT22;55675;49.588;8.640;2023-04-08T08:22:40;13.90;63.90
68691;DHT22;55675;49.588;8.640;2023-04-08T08:25:06;14.10;64.80
68691;DHT22;55675;49.588;8.640;2023-04-08T08:27:33;14.20;62.90
68691;DHT22;55675;49.588;8.640;2023-04-08T08:29:59;14.30;61.10
68691;DHT22;55675;49.588;8.640;2023-04-08T08:32:24;14.40;61.00
68691;DHT22;55675;49.588;8.640;2023-04-08T08:34:49;14.40;59.80
68691;DHT22;55675;49.588;8.640;2023-04-08T08:37:15;14.40;59.30
68691;DHT22;55675;49.588;8.640;2023-04-08T08:39:40;14.50;60.50
68691;DHT22;55675;49.588;8.640;2023-04-08T08:42:06;14.50;59.20
68691;DHT22;55675;49.588;8.640;2023-04-08T08:44:31;14.50;58.60
68691;DHT22;55675;49.588;8.640;2023-04-08T08:46:57;14.50;59.80
68691;DHT22;55675;49.588;8.640;2023-04-08T08:49:22;14.60;59.70
68691;DHT22;55675;49.588;8.640;2023-04-08T08:51:48;14.50;59.50
68691;DHT22;55675;49.588;8.640;2023-04-08T08:54:15;14.60;59.70
68691;DHT22;55675;49.588;8.640;2023-04-08T08:56:41;14.70;59.80
68691;DHT22;55675;49.588;8.640;2023-04-08T08:59:08;14.90;59.50
68691;DHT22;55675;49.588;8.640;2023-04-08T09:01:34;15.00;58.80
68691;DHT22;55675;49.588;8.640;2023-04-08T09:06:36;15.00;58.50
68691;DHT22;55675;49.588;8.640;2023-04-08T09:09:02;14.90;58.50
68691;DHT22;55675;49.588;8.640;2023-04-08T09:11:30;14.90;58.20
68691;DHT22;55675;49.588;8.640;2023-04-08T09:13:56;14.90;57.80
68691;DHT22;55675;49.588;8.640;2023-04-08T09:16:21;14.90;57.70
68691;DHT22;55675;49.588;8.640;2023-04-08T09:18:48;15.10;58.20
68691;DHT22;55675;49.588;8.640;2023-04-08T09:21:14;15.40;57.50
68691;DHT22;55675;49.588;8.640;2023-04-08T09:23:42;15.60;57.10
68691;DHT22;55675;49.588;8.640;2023-04-08T09:26:14;15.80;56.70
68691;DHT22;55675;49.588;8.640;2023-04-08T09:28:40;15.90;55.40
68691;DHT22;55675;49.588;8.640;2023-04-08T09:31:22;16.00;54.50
68691;DHT22;55675;49.588;8.640;2023-04-08T09:33:54;16.10;54.60
68691;DHT22;55675;49.588;8.640;2023-04-08T09:36:20;16.10;54.70
68691;DHT22;55675;49.588;8.640;2023-04-08T09:38:46;16.20;54.40
68691;DHT22;55675;49.588;8.640;2023-04-08T09:41:12;16.20;54.60
68691;DHT22;55675;49.588;8.640;2023-04-08T09:43:42;16.30;55.10
68691;DHT22;55675;49.588;8.640;2023-04-08T09:46:13;16.40;55.00
68691;DHT22;55675;49.588;8.640;2023-04-08T09:48:39;16.40;55.20
68691;DHT22;55675;49.588;8.640;2023-04-08T09:51:07;16.40;54.60
68691;DHT22;55675;49.588;8.640;2023-04-08T09:53:37;16.40;54.00
68691;DHT22;55675;49.588;8.640;2023-04-08T09:56:06;16.40;54.10
68691;DHT22;55675;49.588;8.640;2023-04-08T09:58:32;16.40;53.80
68691;DHT22;55675;49.588;8.640;2023-04-08T10:00:58;16.60;53.50
68691;DHT22;55675;49.588;8.640;2023-04-08T10:03:34;16.70;53.80
68691;DHT22;55675;49.588;8.640;2023-04-08T10:06:01;16.80;52.30
68691;DHT22;55675;49.588;8.640;2023-04-08T10:08:27;16.70;52.10
68691;DHT22;55675;49.588;8.640;2023-04-08T10:10:53;16.60;52.10
68691;DHT22;55675;49.588;8.640;2023-04-08T10:13:19;16.40;52.70
68691;DHT22;55675;49.588;8.640;2023-04-08T10:15:45;16.40;53.30
68691;DHT22;55675;49.588;8.640;2023-04-08T10:23:07;16.00;53.40
68691;DHT22;55675;49.588;8.640;2023-04-08T10:25:34;15.90;54.30
68691;DHT22;55675;49.588;8.640;2023-04-08T10:28:00;15.90;54.50
68691;DHT22;55675;49.588;8.640;2023-04-08T10:32:51;15.80;54.10
68691;DHT22;55675;49.588;8.640;2023-04-08T10:35:17;15.80;54.00
68691;DHT22;55675;49.588;8.640;2023-04-08T10:37:52;15.80;53.60
68691;DHT22;55675;49.588;8.640;2023-04-08T10:40:18;16.00;52.40
68691;DHT22;55675;49.588;8.640;2023-04-08T10:42:44;16.30;51.20
68691;DHT22;55675;49.588;8.640;2023-04-08T10:45:09;16.50;48.50
68691;DHT22;55675;49.588;8.640;2023-04-08T10:47:35;16.60;48.50
68691;DHT22;55675;49.588;8.640;2023-04-08T10:50:11;16.70;47.70
68691;DHT22;55675;49.588;8.640;2023-04-08T10:52:44;16.80;46.90
68691;DHT22;55675;49.588;8.640;2023-04-08T10:55:10;16.90;46.40
68691;DHT22;55675;49.588;8.640;2023-04-08T10:57:36;17.00;47.20
68691;DHT22;55675;49.588;8.640;2023-04-08T11:00:01;17.00;47.30
68691;DHT22;55675;49.588;8.640;2023-04-08T11:02:32;17.10;47.50
68691;DHT22;55675;49.588;8.640;2023-04-08T11:04:58;17.10;47.80
68691;DHT22;55675;49.588;8.640;2023-04-08T11:07:24;17.20;47.60
68691;DHT22;55675;49.588;8.640;2023-04-08T11:09:50;17.30;46.90
68691;DHT22;55675;49.588;8.640;2023-04-08T11:12:15;17.50;47.20
68691;DHT22;55675;49.588;8.640;2023-04-08T11:14:43;17.60;47.20
68691;DHT22;55675;49.588;8.640;2023-04-08T11:17:08;17.80;45.00
68691;DHT22;55675;49.588;8.640;2023-04-08T11:19:34;17.90;45.30
68691;DHT22;55675;49.588;8.640;2023-04-08T11:22:01;18.10;44.80
68691;DHT22;55675;49.588;8.640;2023-04-08T11:24:26;18.10;44.30
68691;DHT22;55675;49.588;8.640;2023-04-08T11:26:52;18.20;44.70
68691;DHT22;55675;49.588;8.640;2023-04-08T11:29:18;18.20;44.70
68691;DHT22;55675;49.588;8.640;2023-04-08T11:31:45;18.20;44.70
68691;DHT22;55675;49.588;8.640;2023-04-08T11:34:12;18.20;43.60
68691;DHT22;55675;49.588;8.640;2023-04-08T11:36:46;18.10;43.90
68691;DHT22;55675;49.588;8.640;2023-04-08T11:39:11;18.10;44.10
68691;DHT22;55675;49.588;8.640;2023-04-08T11:41:37;18.10;44.20
68691;DHT22;55675;49.588;8.640;2023-04-08T11:44:03;17.90;44.00
68691;DHT22;55675;49.588;8.640;2023-04-08T11:46:31;17.80;44.80
68691;DHT22;55675;49.588;8.640;2023-04-08T11:49:06;17.60;44.90
68691;DHT22;55675;49.588;8.640;2023-04-08T11:51:33;17.60;45.10
68691;DHT22;55675;49.588;8.640;2023-04-08T11:54:00;17.70;44.50
68691;DHT22;55675;49.588;8.640;2023-04-08T11:56:28;17.80;44.00
68691;DHT22;55675;49.588;8.640;2023-04-08T11:58:54;18.00;44.50
68691;DHT22;55675;49.588;8.640;2023-04-08T12:01:20;18.20;42.90
68691;DHT22;55675;49.588;8.640;2023-04-08T12:03:52;18.20;42.10
68691;DHT22;55675;49.588;8.640;2023-04-08T12:06:18;18.10;42.00
68691;DHT22;55675;49.588;8.640;2023-04-08T12:08:43;18.20;42.60
68691;DHT22;55675;49.588;8.640;2023-04-08T12:11:09;18.40;42.40
68691;DHT22;55675;49.588;8.640;2023-04-08T12:13:34;18.40;42.50
68691;DHT22;55675;49.588;8.640;2023-04-08T12:16:00;18.60;42.90
68691;DHT22;55675;49.588;8.640;2023-04-08T12:18:25;18.90;42.50
68691;DHT22;55675;49.588;8.640;2023-04-08T12:20:51;19.10;42.30
68691;DHT22;55675;49.588;8.640;2023-04-08T12:23:16;19.30;42.30
68691;DHT22;55675;49.588;8.640;2023-04-08T12:25:41;19.30;42.20
68691;DHT22;55675;49.588;8.640;2023-04-08T12:28:07;19.40;42.20
68691;DHT22;55675;49.588;8.640;2023-04-08T12:30:34;19.50;41.50
68691;DHT22;55675;49.588;8.640;2023-04-08T12:32:59;19.40;41.20
68691;DHT22;55675;49.588;8.640;2023-04-08T12:35:24;19.50;40.80
68691;DHT22;55675;49.588;8.640;2023-04-08T12:37:50;19.50;41.50
68691;DHT22;55675;49.588;8.640;2023-04-08T12:40:15;19.50;41.00
68691;DHT22;55675;49.588;8.640;2023-04-08T12:42:43;19.40;41.60
68691;DHT22;55675;49.588;8.640;2023-04-08T12:45:08;19.40;41.20
68691;DHT22;55675;49.588;8.640;2023-04-08T12:47:34;19.30;41.10
68691;DHT22;55675;49.588;8.640;2023-04-08T12:49:59;19.20;42.10
68691;DHT22;55675;49.588;8.640;2023-04-08T12:52:25;19.10;42.70
68691;DHT22;55675;49.588;8.640;2023-04-08T12:54:50;19.10;42.90
68691;DHT22;55675;49.588;8.640;2023-04-08T12:57:16;19.00;43.40
68691;DHT22;55675;49.588;8.640;2023-04-08T12:59:41;19.00;43.40
68691;DHT22;55675;49.588;8.640;2023-04-08T13:02:07;18.90;43.90
68691;DHT22;55675;49.588;8.640;2023-04-08T13:04:32;18.70;44.60
68691;DHT22;55675;49.588;8.640;2023-04-08T13:06:58;18.40;45.40
68691;DHT22;55675;49.588;8.640;2023-04-08T13:09:23;18.20;45.60
68691;DHT22;55675;49.588;8.640;2023-04-08T13:11:49;18.10;46.60
68691;DHT22;55675;49.588;8.640;2023-04-08T13:14:14;17.90;46.50
68691;DHT22;55675;49.588;8.640;2023-04-08T13:16:40;17.70;47.90
68691;DHT22;55675;49.588;8.640;2023-04-08T13:19:06;17.40;48.20
68691;DHT22;55675;49.588;8.640;2023-04-08T13:21:31;17.40;49.10
68691;DHT22;55675;49.588;8.640;2023-04-08T13:23:56;17.50;49.40
68691;DHT22;55675;49.588;8.640;2023-04-08T13:26:22;17.80;49.10
68691;DHT22;55675;49.588;8.640;2023-04-08T13:28:48;18.10;48.00
68691;DHT22;55675;49.588;8.640;2023-04-08T13:31:13;18.20;47.30
68691;DHT22;55675;49.588;8.640;2023-04-08T13:33:39;18.10;47.30
68691;DHT22;55675;49.588;8.640;2023-04-08T13:36:04;18.00;48.40
68691;DHT22;55675;49.588;8.640;2023-04-08T13:38:30;18.20;48.60
68691;DHT22;55675;49.588;8.640;2023-04-08T13:40:55;18.90;47.60
68691;DHT22;55675;49.588;8.640;2023-04-08T13:43:21;19.70;47.00
68691;DHT22;55675;49.588;8.640;2023-04-08T13:45:46;20.50;44.40
68691;DHT22;55675;49.588;8.640;2023-04-08T13:48:12;20.70;43.20
68691;DHT22;55675;49.588;8.640;2023-04-08T13:50:37;21.50;43.50
68691;DHT22;55675;49.588;8.640;2023-04-08T13:53:04;21.90;40.90
68691;DHT22;55675;49.588;8.640;2023-04-08T13:55:30;21.40;41.20
68691;DHT22;55675;49.588;8.640;2023-04-08T13:57:55;21.10;42.40
68691;DHT22;55675;49.588;8.640;2023-04-08T14:00:21;21.00;41.90
68691;DHT22;55675;49.588;8.640;2023-04-08T14:02:46;21.30;43.10
68691;DHT22;55675;49.588;8.640;2023-04-08T14:05:12;21.70;41.90
68691;DHT22;55675;49.588;8.640;2023-04-08T14:07:37;21.20;42.10
68691;DHT22;55675;49.588;8.640;2023-04-08T14:10:03;20.70;43.30
68691;DHT22;55675;49.588;8.640;2023-04-08T14:12:28;20.30;43.60
68691;DHT22;55675;49.588;8.640;2023-04-08T14:14:54;19.90;44.50
68691;DHT22;55675;49.588;8.640;2023-04-08T14:17:19;19.60;44.80
68691;DHT22;55675;49.588;8.640;2023-04-08T14:19:45;19.40;45.40
68691;DHT22;55675;49.588;8.640;2023-04-08T14:22:10;19.30;46.80
68691;DHT22;55675;49.588;8.640;2023-04-08T14:24:36;19.10;46.60
68691;DHT22;55675;49.588;8.640;2023-04-08T14:27:02;19.00;47.00
68691;DHT22;55675;49.588;8.640;2023-04-08T14:29:28;19.00;47.30
68691;DHT22;55675;49.588;8.640;2023-04-08T14:31:54;18.90;47.20
68691;DHT22;55675;49.588;8.640;2023-04-08T14:34:19;18.80;47.80
68691;DHT22;55675;49.588;8.640;2023-04-08T14:36:45;18.80;47.90
68691;DHT22;55675;49.588;8.640;2023-04-08T14:39:10;18.60;48.00
68691;DHT22;55675;49.588;8.640;2023-04-08T14:41:36;18.50;48.30
68691;DHT22;55675;49.588;8.640;2023-04-08T14:44:02;18.40;48.60
68691;DHT22;55675;49.588;8.640;2023-04-08T14:46:28;18.40;48.70
68691;DHT22;55675;49.588;8.640;2023-04-08T14:48:54;18.40;49.00
68691;DHT22;55675;49.588;8.640;2023-04-08T14:51:19;18.30;49.40
68691;DHT22;55675;49.588;8.640;2023-04-08T14:53:45;18.20;48.90
68691;DHT22;55675;49.588;8.640;2023-04-08T14:56:10;18.20;49.00
68691;DHT22;55675;49.588;8.640;2023-04-08T14:58:36;18.10;49.30
68691;DHT22;55675;49.588;8.640;2023-04-08T15:01:01;18.10;49.20
68691;DHT22;55675;49.588;8.640;2023-04-08T15:03:27;18.10;49.30
68691;DHT22;55675;49.588;8.640;2023-04-08T15:05:52;18.10;49.30
68691;DHT22;55675;49.588;8.640;2023-04-08T15:08:20;18.10;49.30
68691;DHT22;55675;49.588;8.640;2023-04-08T15:10:45;18.10;49.30
68691;DHT22;55675;49.588;8.640;2023-04-08T15:13:10;18.00;49.30
68691;DHT22;55675;49.588;8.640;2023-04-08T15:15:36;17.90;49.50
68691;DHT22;55675;49.588;8.640;2023-04-08T15:18:01;17.90;49.60
68691;DHT22;55675;49.588;8.640;2023-04-08T15:20:27;17.80;49.90
68691;DHT22;55675;49.588;8.640;2023-04-08T15:22:52;17.80;49.80
68691;DHT22;55675;49.588;8.640;2023-04-08T15:25:18;17.70;49.90
68691;DHT22;55675;49.588;8.640;2023-04-08T15:27:43;17.70;49.90
68691;DHT22;55675;49.588;8.640;2023-04-08T15:30:09;17.80;50.40
68691;DHT22;55675;49.588;8.640;2023-04-08T15:32:34;17.80;50.10
68691;DHT22;55675;49.588;8.640;2023-04-08T15:35:00;17.80;50.10
68691;DHT22;55675;49.588;8.640;2023-04-08T15:37:25;18.00;50.50
68691;DHT22;55675;49.588;8.640;2023-04-08T15:39:51;18.20;50.40
68691;DHT22;55675;49.588;8.640;2023-04-08T15:42:20;18.40;50.20